createdAt,value
2018-09-29T00:03:24.241Z,9.10
2018-09-29T00:08:27.562Z,9.00
2018-09-29T00:13:31.064Z,8.90
2018-09-29T00:18:34.433Z,8.90
2018-09-29T00:23:37.737Z,8.80
2018-09-29T00:28:42.280Z,8.70
2018-09-29T00:33:45.641Z,8.70
2018-09-29T00:38:48.973Z,8.60
2018-09-29T00:43:52.341Z,8.60
2018-09-29T00:48:55.715Z,8.50
2018-09-29T00:59:02.181Z,8.30
2018-09-29T01:04:05.486Z,8.30
2018-09-29T01:09:09.013Z,8.10
2018-09-29T01:14:12.289Z,8.00
2018-09-29T01:19:15.578Z,7.80
2018-09-29T01:24:18.902Z,7.70
2018-09-29T01:29:22.289Z,7.60
2018-09-29T01:34:25.658Z,7.50
2018-09-29T01:39:29.109Z,7.40
2018-09-29T01:44:32.532Z,7.30
2018-09-29T01:49:35.868Z,7.00
2018-09-29T01:54:39.461Z,7.10
2018-09-29T01:59:42.862Z,6.80
2018-09-29T02:04:46.234Z,7.00
2018-09-29T02:09:49.869Z,6.70
2018-09-29T02:14:53.197Z,6.70
2018-09-29T02:19:56.637Z,6.60
2018-09-29T02:24:59.994Z,6.20
2018-09-29T02:30:03.502Z,6.50
2018-09-29T02:35:07.021Z,6.50
2018-09-29T02:40:10.424Z,6.50
2018-09-29T02:45:14.178Z,6.50
2018-09-29T02:50:17.545Z,6.50
2018-09-29T02:55:20.868Z,6.60
2018-09-29T03:00:24.208Z,6.50
2018-09-29T03:05:27.740Z,6.50
2018-09-29T03:10:31.153Z,6.30
2018-09-29T03:20:37.595Z,6.10
2018-09-29T03:25:40.925Z,6.10
2018-09-29T03:30:44.353Z,6.10
2018-09-29T03:35:47.710Z,6.00
2018-09-29T03:40:51.234Z,5.90
2018-09-29T03:45:54.647Z,5.90
2018-09-29T03:50:58.092Z,5.90
2018-09-29T03:56:02.549Z,5.60
2018-09-29T04:01:06.345Z,5.40
2018-09-29T04:06:09.739Z,5.50
2018-09-29T04:11:13.295Z,5.30
2018-09-29T04:16:16.662Z,5.20
2018-09-29T04:21:20.053Z,5.10
2018-09-29T04:26:23.486Z,5.20
2018-09-29T04:31:26.878Z,5.10
2018-09-29T04:36:30.233Z,5.20
2018-09-29T04:41:33.517Z,5.30
2018-09-29T04:46:36.849Z,5.30
2018-09-29T04:51:40.213Z,5.30
2018-09-29T04:56:43.541Z,5.30
2018-09-29T05:01:46.861Z,5.20
2018-09-29T05:06:50.213Z,5.10
2018-09-29T05:11:53.500Z,5.00
2018-09-29T05:16:56.805Z,5.00
2018-09-29T05:22:00.269Z,4.90
2018-09-29T05:27:03.829Z,4.70
2018-09-29T05:32:07.141Z,4.60
2018-09-29T05:37:10.470Z,4.60
2018-09-29T05:42:13.906Z,4.60
2018-09-29T05:47:17.230Z,4.60
2018-09-29T05:57:24.744Z,4.80
2018-09-29T06:07:31.490Z,5.00
2018-09-29T06:12:34.824Z,5.20
2018-09-29T06:17:38.277Z,5.30
2018-09-29T06:22:41.743Z,5.50
2018-09-29T06:27:45.147Z,5.70
2018-09-29T06:32:48.618Z,5.80
2018-09-29T06:37:52.192Z,5.90
2018-09-29T06:42:57.669Z,6.00
2018-09-29T06:48:01.196Z,6.10
2018-09-29T06:53:04.732Z,6.30
2018-09-29T06:58:08.095Z,6.70
2018-09-29T07:03:11.443Z,6.80
2018-09-29T07:08:14.685Z,7.10
2018-09-29T07:13:18.054Z,7.30
2018-09-29T07:18:21.465Z,7.40
2018-09-29T07:23:25.128Z,7.50
2018-09-29T07:28:28.570Z,7.70
2018-09-29T07:33:32.021Z,7.80
2018-09-29T07:43:39.107Z,8.20
2018-09-29T07:48:42.756Z,8.40
2018-09-29T07:53:46.377Z,8.50
2018-09-29T07:58:49.874Z,8.70
2018-09-29T08:03:53.505Z,8.80
2018-09-29T08:08:56.856Z,9.30
2018-09-29T08:14:00.357Z,9.60
2018-09-29T08:19:03.737Z,9.90
2018-09-29T08:24:07.205Z,10.40
2018-09-29T08:29:15.925Z,10.70
2018-09-29T08:34:19.366Z,10.80
2018-09-29T08:39:22.760Z,11.10
2018-09-29T08:44:26.286Z,11.30
2018-09-29T08:49:29.633Z,11.30
2018-09-29T08:54:33.118Z,11.70
2018-09-29T08:59:36.640Z,11.90
2018-09-29T09:04:40.451Z,12.00
2018-09-29T09:09:43.896Z,12.00
2018-09-29T09:14:47.173Z,12.00
2018-09-29T09:19:50.613Z,12.00
2018-09-29T09:24:53.893Z,12.30
2018-09-29T09:29:57.356Z,12.50
2018-09-29T09:35:00.622Z,12.10
2018-09-29T09:40:04.107Z,12.40
2018-09-29T09:45:08.037Z,12.10
2018-09-29T09:50:11.488Z,12.40
2018-09-29T09:55:14.897Z,12.70
2018-09-29T10:00:18.214Z,12.30
2018-09-29T10:05:22.440Z,12.50
2018-09-29T10:10:25.736Z,13.00
2018-09-29T10:15:29.129Z,12.50
2018-09-29T10:20:32.442Z,12.80
2018-09-29T10:25:36.129Z,13.40
2018-09-29T10:30:39.460Z,13.60
2018-09-29T10:35:42.991Z,13.60
2018-09-29T10:40:46.544Z,13.70
2018-09-29T10:45:49.866Z,13.50
2018-09-29T10:50:53.241Z,13.40
2018-09-29T10:55:56.641Z,13.90
2018-09-29T11:01:00.063Z,13.70
2018-09-29T11:06:03.645Z,13.60
2018-09-29T11:11:06.959Z,13.40
2018-09-29T11:16:10.359Z,13.20
2018-09-29T11:21:13.677Z,13.90
2018-09-29T11:26:17.013Z,14.20
2018-09-29T11:31:20.430Z,13.40
2018-09-29T11:36:23.814Z,14.20
2018-09-29T11:41:27.321Z,14.30
2018-09-29T11:46:30.814Z,15.10
2018-09-29T11:51:34.220Z,13.80
2018-09-29T11:56:37.516Z,14.30
2018-09-29T12:01:41.065Z,14.70
2018-09-29T12:06:44.345Z,14.90
2018-09-29T12:11:47.625Z,14.30
2018-09-29T12:16:51.107Z,14.40
2018-09-29T12:21:54.418Z,15.20
2018-09-29T12:26:57.750Z,15.10
2018-09-29T12:32:01.141Z,14.60
2018-09-29T12:37:04.683Z,15.00
2018-09-29T12:42:08.004Z,15.00
2018-09-29T12:47:11.317Z,15.50
2018-09-29T12:57:17.764Z,15.60
2018-09-29T13:02:21.267Z,15.80
2018-09-29T13:07:24.593Z,15.20
2018-09-29T13:12:28.041Z,15.70
2018-09-29T13:17:31.578Z,16.00
2018-09-29T13:27:38.114Z,15.80
2018-09-29T13:32:41.622Z,16.10
2018-09-29T13:37:45.069Z,16.30
2018-09-29T13:42:48.546Z,16.30
2018-09-29T13:47:52.227Z,16.20
2018-09-29T13:52:55.761Z,16.30
2018-09-29T13:57:59.308Z,15.70
2018-09-29T14:03:02.781Z,16.10
2018-09-29T14:08:06.288Z,16.00
2018-09-29T14:13:09.737Z,16.00
2018-09-29T14:18:13.205Z,16.60
2018-09-29T14:23:16.620Z,16.60
2018-09-29T14:28:19.962Z,16.70
2018-09-29T14:33:23.626Z,16.40
2018-09-29T14:38:26.931Z,16.50
2018-09-29T14:43:30.327Z,16.60
2018-09-29T14:48:33.701Z,16.40
2018-09-29T14:53:37.107Z,16.30
2018-09-29T14:58:40.572Z,16.00
2018-09-29T15:03:43.908Z,16.50
2018-09-29T15:08:47.275Z,16.60
2018-09-29T15:13:50.671Z,16.10
2018-09-29T15:18:53.980Z,16.60
2018-09-29T15:23:57.365Z,16.00
2018-09-29T15:29:00.754Z,16.30
2018-09-29T15:34:04.298Z,16.80
2018-09-29T15:39:09.506Z,18.70
2018-09-29T15:44:12.819Z,18.60
2018-09-29T15:49:16.397Z,17.10
2018-09-29T15:54:19.720Z,15.90
2018-09-29T15:59:23.164Z,15.70
2018-09-29T16:04:26.457Z,15.30
2018-09-29T16:09:29.829Z,15.10
2018-09-29T16:14:33.173Z,14.80
2018-09-29T16:19:36.616Z,14.60
2018-09-29T16:24:39.989Z,14.30
2018-09-29T16:29:43.461Z,14.00
2018-09-29T16:34:46.771Z,13.80
2018-09-29T16:39:50.366Z,13.70
2018-09-29T16:44:53.721Z,13.50
2018-09-29T16:49:57.173Z,13.30
2018-09-29T16:55:00.811Z,13.20
2018-09-29T17:00:04.389Z,12.80
2018-09-29T17:05:07.717Z,12.50
2018-09-29T17:10:11.265Z,12.30
2018-09-29T17:15:14.642Z,12.20
2018-09-29T17:20:17.982Z,12.00
2018-09-29T17:25:21.489Z,11.80
2018-09-29T17:30:24.897Z,11.50
2018-09-29T17:35:28.250Z,11.40
2018-09-29T17:40:31.814Z,11.20
2018-09-29T17:45:35.239Z,11.00
2018-09-29T17:50:38.709Z,10.90
2018-09-29T17:55:42.044Z,10.80
2018-09-29T18:00:45.462Z,10.70
2018-09-29T18:05:48.834Z,10.70
2018-09-29T18:10:52.190Z,10.50
2018-09-29T18:15:55.953Z,10.30
2018-09-29T18:20:59.242Z,10.20
2018-09-29T18:26:02.585Z,10.20
2018-09-29T18:36:08.983Z,10.00
2018-09-29T18:41:12.420Z,10.00
2018-09-29T18:46:15.704Z,9.90
2018-09-29T18:51:19.053Z,9.70
2018-09-29T18:56:22.358Z,9.70
2018-09-29T19:01:25.862Z,9.50
2018-09-29T19:06:29.358Z,9.30
2018-09-29T19:11:32.851Z,9.40
2018-09-29T19:16:36.242Z,9.00
2018-09-29T19:21:39.697Z,9.10
2018-09-29T19:26:43.084Z,9.10
2018-09-29T19:31:46.437Z,8.60
2018-09-29T19:36:49.813Z,8.40
2018-09-29T19:41:53.138Z,8.50
2018-09-29T19:46:56.434Z,8.40
2018-09-29T19:51:59.737Z,8.30
2018-09-29T19:57:03.043Z,8.40
2018-09-29T20:02:07.010Z,8.50
2018-09-29T20:07:10.327Z,8.40
2018-09-29T20:12:13.737Z,8.20
2018-09-29T20:17:17.205Z,8.20
2018-09-29T20:22:20.756Z,8.00
2018-09-29T20:27:24.081Z,7.60
2018-09-29T20:32:27.378Z,7.40
2018-09-29T20:37:30.776Z,7.50
2018-09-29T20:42:34.066Z,7.20
2018-09-29T20:47:37.542Z,7.20
2018-09-29T20:52:40.899Z,7.00
2018-09-29T20:57:44.321Z,7.00
2018-09-29T21:02:47.606Z,6.80
2018-09-29T21:07:50.944Z,6.60
2018-09-29T21:12:54.419Z,6.60
2018-09-29T21:17:57.772Z,6.70
2018-09-29T21:23:01.139Z,6.50
2018-09-29T21:28:04.724Z,6.90
2018-09-29T21:33:08.056Z,6.80
2018-09-29T21:38:11.373Z,6.70
2018-09-29T21:43:14.879Z,6.50
2018-09-29T21:48:18.174Z,6.40
2018-09-29T21:53:21.625Z,6.30
2018-09-29T21:58:24.970Z,6.00
2018-09-29T22:03:28.308Z,5.90
2018-09-29T22:08:31.901Z,6.10
2018-09-29T22:13:35.236Z,5.80
2018-09-29T22:18:38.593Z,6.00
2018-09-29T22:23:42.070Z,5.50
2018-09-29T22:28:45.453Z,5.30
2018-09-29T22:33:48.979Z,5.10
2018-09-29T22:38:52.460Z,5.00
2018-09-29T22:43:55.787Z,5.40
2018-09-29T22:48:59.327Z,5.50
2018-09-29T22:54:02.819Z,5.40
2018-09-29T22:59:06.122Z,5.10
2018-09-29T23:04:09.452Z,5.10
2018-09-29T23:09:12.984Z,4.90
2018-09-29T23:14:16.540Z,4.90
2018-09-29T23:19:19.833Z,4.80
2018-09-29T23:24:23.124Z,4.90
2018-09-29T23:29:26.418Z,5.10
2018-09-29T23:34:29.749Z,4.90
2018-09-29T23:39:33.217Z,4.70
2018-09-29T23:44:36.687Z,4.50
2018-09-29T23:49:40.024Z,4.80
2018-09-29T23:54:43.494Z,4.60
2018-09-29T23:59:47.002Z,4.40
